sensor_id;sensor_type;location;lat;lon;timestamp;pressure;altitude;pressure_sealevel;temperature;humidity
29461;BME280;16428;47.836;35.106;2022-12-07T00:02:02;102149.66;;;-1.96;64.86
29461;BME280;16428;47.836;35.106;2022-12-07T00:04:33;102143.97;;;-1.85;64.84
29461;BME280;16428;47.836;35.106;2022-12-07T00:07:03;102144.88;;;-1.86;64.75
29461;BME280;16428;47.836;35.106;2022-12-07T00:09:32;102140.72;;;-1.70;64.46
29461;BME280;16428;47.836;35.106;2022-12-07T00:12:01;102138.56;;;-1.82;64.56
29461;BME280;16428;47.836;35.106;2022-12-07T00:14:30;102131.16;;;-1.94;65.04
29461;BME280;16428;47.836;35.106;2022-12-07T00:16:59;102131.22;;;-1.96;65.75
29461;BME280;16428;47.836;35.106;2022-12-07T00:19:28;102121.59;;;-1.97;66.06
29461;BME280;16428;47.836;35.106;2022-12-07T00:21:56;102127.44;;;-1.89;65.96
29461;BME280;16428;47.836;35.106;2022-12-07T00:24:25;102111.28;;;-1.81;65.24
29461;BME280;16428;47.836;35.106;2022-12-07T00:26:53;102116.56;;;-1.81;65.46
29461;BME280;16428;47.836;35.106;2022-12-07T00:29:22;102120.59;;;-1.72;65.48
29461;BME280;16428;47.836;35.106;2022-12-07T00:31:52;102121.47;;;-1.72;65.42
29461;BME280;16428;47.836;35.106;2022-12-07T00:34:21;102107.16;;;-1.87;65.86
29461;BME280;16428;47.836;35.106;2022-12-07T00:36:50;102115.28;;;-1.71;65.72
29461;BME280;16428;47.836;35.106;2022-12-07T00:39:19;102112.59;;;-1.91;66.31
29461;BME280;16428;47.836;35.106;2022-12-07T00:41:47;102107.56;;;-1.97;66.54
29461;BME280;16428;47.836;35.106;2022-12-07T00:44:16;102108.00;;;-1.86;66.40
29461;BME280;16428;47.836;35.106;2022-12-07T00:46:45;102106.41;;;-1.90;66.85
29461;BME280;16428;47.836;35.106;2022-12-07T00:49:14;102100.91;;;-1.84;66.88
29461;BME280;16428;47.836;35.106;2022-12-07T00:51:43;102107.69;;;-1.79;66.85
29461;BME280;16428;47.836;35.106;2022-12-07T00:54:12;102094.56;;;-2.00;67.49
29461;BME280;16428;47.836;35.106;2022-12-07T00:56:41;102082.44;;;-2.04;67.89
29461;BME280;16428;47.836;35.106;2022-12-07T00:59:12;102076.59;;;-2.13;68.70
29461;BME280;16428;47.836;35.106;2022-12-07T01:01:45;102078.13;;;-1.85;68.28
29461;BME280;16428;47.836;35.106;2022-12-07T01:04:13;102071.50;;;-1.95;69.07
29461;BME280;16428;47.836;35.106;2022-12-07T01:06:42;102073.97;;;-2.13;70.14
29461;BME280;16428;47.836;35.106;2022-12-07T01:09:10;102074.25;;;-1.98;69.61
29461;BME280;16428;47.836;35.106;2022-12-07T01:11:39;102068.34;;;-2.03;70.24
29461;BME280;16428;47.836;35.106;2022-12-07T01:14:08;102073.50;;;-2.00;70.05
29461;BME280;16428;47.836;35.106;2022-12-07T01:16:39;102072.25;;;-2.14;70.70
29461;BME280;16428;47.836;35.106;2022-12-07T01:19:11;102066.63;;;-2.04;70.50
29461;BME280;16428;47.836;35.106;2022-12-07T01:21:43;102072.94;;;-2.08;70.84
29461;BME280;16428;47.836;35.106;2022-12-07T01:24:12;102060.16;;;-2.18;70.86
29461;BME280;16428;47.836;35.106;2022-12-07T01:26:41;102069.25;;;-2.04;70.60
29461;BME280;16428;47.836;35.106;2022-12-07T01:29:09;102062.91;;;-1.99;70.14
29461;BME280;16428;47.836;35.106;2022-12-07T01:31:37;102067.00;;;-2.14;70.92
29461;BME280;16428;47.836;35.106;2022-12-07T01:34:06;102063.31;;;-2.09;71.15
29461;BME280;16428;47.836;35.106;2022-12-07T01:36:35;102060.38;;;-2.02;70.27
29461;BME280;16428;47.836;35.106;2022-12-07T01:39:06;102063.59;;;-2.16;70.90
29461;BME280;16428;47.836;35.106;2022-12-07T01:41:38;102056.13;;;-2.26;71.42
29461;BME280;16428;47.836;35.106;2022-12-07T01:44:25;102050.28;;;-2.13;71.18
29461;BME280;16428;47.836;35.106;2022-12-07T01:47:04;102048.31;;;-2.07;70.63
29461;BME280;16428;47.836;35.106;2022-12-07T01:49:48;102058.31;;;-2.16;70.74
29461;BME280;16428;47.836;35.106;2022-12-07T01:52:32;102054.44;;;-2.07;69.75
29461;BME280;16428;47.836;35.106;2022-12-07T01:55:04;102049.75;;;-2.21;71.21
29461;BME280;16428;47.836;35.106;2022-12-07T01:57:38;102050.84;;;-2.26;71.33
29461;BME280;16428;47.836;35.106;2022-12-07T02:00:10;102053.66;;;-2.09;70.77
29461;BME280;16428;47.836;35.106;2022-12-07T02:02:47;102052.25;;;-2.18;71.70
29461;BME280;16428;47.836;35.106;2022-12-07T02:05:18;102068.59;;;-2.09;71.10
29461;BME280;16428;47.836;35.106;2022-12-07T02:07:53;102062.28;;;-2.27;71.56
29461;BME280;16428;47.836;35.106;2022-12-07T02:10:26;102061.19;;;-2.22;71.00
29461;BME280;16428;47.836;35.106;2022-12-07T02:13:11;102067.25;;;-2.63;72.88
29461;BME280;16428;47.836;35.106;2022-12-07T02:27:32;102066.06;;;-2.33;72.14
29461;BME280;16428;47.836;35.106;2022-12-07T02:30:31;102067.66;;;-2.08;71.55
29461;BME280;16428;47.836;35.106;2022-12-07T02:33:21;102067.88;;;-2.35;71.70
29461;BME280;16428;47.836;35.106;2022-12-07T02:36:13;102068.28;;;-2.24;71.78
29461;BME280;16428;47.836;35.106;2022-12-07T02:39:08;102066.75;;;-2.07;70.83
29461;BME280;16428;47.836;35.106;2022-12-07T02:41:46;102065.25;;;-1.93;70.91
29461;BME280;16428;47.836;35.106;2022-12-07T02:44:20;102066.75;;;-2.07;71.13
29461;BME280;16428;47.836;35.106;2022-12-07T02:46:57;102053.47;;;-2.26;71.68
29461;BME280;16428;47.836;35.106;2022-12-07T02:49:28;102060.28;;;-2.21;71.38
29461;BME280;16428;47.836;35.106;2022-12-07T02:51:56;102056.84;;;-2.23;71.60
29461;BME280;16428;47.836;35.106;2022-12-07T02:54:25;102052.44;;;-2.00;71.07
29461;BME280;16428;47.836;35.106;2022-12-07T02:57:24;102051.34;;;-1.96;69.78
29461;BME280;16428;47.836;35.106;2022-12-07T03:00:09;102053.06;;;-2.16;69.72
29461;BME280;16428;47.836;35.106;2022-12-07T03:02:56;102050.13;;;-2.30;70.90
29461;BME280;16428;47.836;35.106;2022-12-07T03:05:29;102053.81;;;-2.34;71.46
29461;BME280;16428;47.836;35.106;2022-12-07T03:09:20;102038.38;;;-2.43;71.44
29461;BME280;16428;47.836;35.106;2022-12-07T03:11:37;102043.16;;;-2.53;71.99
29461;BME280;16428;47.836;35.106;2022-12-07T03:14:21;102035.38;;;-2.56;72.18
29461;BME280;16428;47.836;35.106;2022-12-07T03:17:14;102042.78;;;-2.43;71.97
29461;BME280;16428;47.836;35.106;2022-12-07T03:19:48;102041.69;;;-2.38;71.64
29461;BME280;16428;47.836;35.106;2022-12-07T03:22:19;102041.81;;;-2.41;71.58
29461;BME280;16428;47.836;35.106;2022-12-07T03:24:57;102027.38;;;-2.53;72.02
29461;BME280;16428;47.836;35.106;2022-12-07T03:27:35;102029.03;;;-2.50;71.45
29461;BME280;16428;47.836;35.106;2022-12-07T03:30:16;102025.50;;;-2.72;72.34
29461;BME280;16428;47.836;35.106;2022-12-07T03:35:23;102029.88;;;-2.71;72.30
29461;BME280;16428;47.836;35.106;2022-12-07T03:38:08;102020.03;;;-2.66;72.65
29461;BME280;16428;47.836;35.106;2022-12-07T03:41:04;102015.38;;;-2.81;72.70
29461;BME280;16428;47.836;35.106;2022-12-07T03:43:35;102011.56;;;-2.74;73.72
29461;BME280;16428;47.836;35.106;2022-12-07T03:46:20;102004.63;;;-2.75;73.30
29461;BME280;16428;47.836;35.106;2022-12-07T03:49:25;102009.56;;;-2.68;72.64
29461;BME280;16428;47.836;35.106;2022-12-07T03:52:18;102009.72;;;-2.72;72.94
29461;BME280;16428;47.836;35.106;2022-12-07T03:55:02;102007.09;;;-2.72;73.25
29461;BME280;16428;47.836;35.106;2022-12-07T03:57:36;102010.16;;;-2.83;72.79
29461;BME280;16428;47.836;35.106;2022-12-07T04:00:07;102008.94;;;-2.74;72.68
29461;BME280;16428;47.836;35.106;2022-12-07T04:02:37;101997.69;;;-2.78;72.56
29461;BME280;16428;47.836;35.106;2022-12-07T04:05:06;102003.50;;;-2.70;72.50
29461;BME280;16428;47.836;35.106;2022-12-07T04:07:37;102015.59;;;-2.88;72.79
29461;BME280;16428;47.836;35.106;2022-12-07T04:10:07;102007.47;;;-2.81;72.76
29461;BME280;16428;47.836;35.106;2022-12-07T04:12:37;102014.13;;;-2.73;72.73
29461;BME280;16428;47.836;35.106;2022-12-07T04:15:08;102020.25;;;-2.94;72.26
29461;BME280;16428;47.836;35.106;2022-12-07T04:17:37;102031.31;;;-2.86;72.35
29461;BME280;16428;47.836;35.106;2022-12-07T04:20:09;102026.00;;;-2.85;72.13
29461;BME280;16428;47.836;35.106;2022-12-07T04:22:38;102024.00;;;-3.01;73.40
29461;BME280;16428;47.836;35.106;2022-12-07T04:25:08;102012.41;;;-2.96;73.43
29461;BME280;16428;47.836;35.106;2022-12-07T04:27:37;102009.09;;;-3.01;73.78
29461;BME280;16428;47.836;35.106;2022-12-07T04:30:06;102011.94;;;-2.84;72.95
29461;BME280;16428;47.836;35.106;2022-12-07T04:32:37;102031.03;;;-2.78;72.80
29461;BME280;16428;47.836;35.106;2022-12-07T04:35:05;102031.97;;;-3.03;73.46
29461;BME280;16428;47.836;35.106;2022-12-07T04:37:34;102030.38;;;-3.07;73.30
29461;BME280;16428;47.836;35.106;2022-12-07T04:40:04;102008.41;;;-2.83;72.97
29461;BME280;16428;47.836;35.106;2022-12-07T04:42:37;102003.34;;;-2.89;72.52
29461;BME280;16428;47.836;35.106;2022-12-07T04:45:07;102005.81;;;-3.06;73.40
29461;BME280;16428;47.836;35.106;2022-12-07T04:47:36;101992.13;;;-2.92;72.96
29461;BME280;16428;47.836;35.106;2022-12-07T04:50:09;102006.16;;;-3.15;73.34
29461;BME280;16428;47.836;35.106;2022-12-07T04:52:38;102006.16;;;-3.15;73.67
29461;BME280;16428;47.836;35.106;2022-12-07T04:55:07;102021.91;;;-2.92;73.02
29461;BME280;16428;47.836;35.106;2022-12-07T04:57:36;102022.59;;;-3.10;73.08
29461;BME280;16428;47.836;35.106;2022-12-07T05:00:06;102016.53;;;-3.12;72.79
29461;BME280;16428;47.836;35.106;2022-12-07T05:02:35;102011.19;;;-3.09;73.20
29461;BME280;16428;47.836;35.106;2022-12-07T05:05:04;102013.34;;;-3.20;73.47
29461;BME280;16428;47.836;35.106;2022-12-07T05:07:33;102030.72;;;-3.16;72.91
29461;BME280;16428;47.836;35.106;2022-12-07T05:10:02;102024.16;;;-3.28;73.95
29461;BME280;16428;47.836;35.106;2022-12-07T05:12:32;102025.56;;;-3.19;73.50
29461;BME280;16428;47.836;35.106;2022-12-07T05:15:00;102045.00;;;-3.23;74.00
29461;BME280;16428;47.836;35.106;2022-12-07T05:17:28;102047.69;;;-3.25;73.92
29461;BME280;16428;47.836;35.106;2022-12-07T05:19:56;102029.34;;;-3.26;73.41
29461;BME280;16428;47.836;35.106;2022-12-07T05:22:24;102018.84;;;-3.26;73.49
29461;BME280;16428;47.836;35.106;2022-12-07T05:24:57;102028.03;;;-3.38;75.00
29461;BME280;16428;47.836;35.106;2022-12-07T05:27:26;102036.63;;;-3.34;75.05
29461;BME280;16428;47.836;35.106;2022-12-07T05:29:54;102027.22;;;-3.40;75.09
29461;BME280;16428;47.836;35.106;2022-12-07T05:32:24;102022.94;;;-3.42;74.76
29461;BME280;16428;47.836;35.106;2022-12-07T05:34:53;102033.91;;;-3.31;74.84
29461;BME280;16428;47.836;35.106;2022-12-07T05:37:23;102016.75;;;-3.18;73.91
29461;BME280;16428;47.836;35.106;2022-12-07T05:39:53;102016.66;;;-3.15;73.67
29461;BME280;16428;47.836;35.106;2022-12-07T05:42:23;102021.44;;;-3.03;73.22
29461;BME280;16428;47.836;35.106;2022-12-07T05:44:52;102031.41;;;-3.11;73.66
29461;BME280;16428;47.836;35.106;2022-12-07T05:47:31;102034.34;;;-3.20;73.73
29461;BME280;16428;47.836;35.106;2022-12-07T05:50:00;102038.13;;;-3.27;73.76
29461;BME280;16428;47.836;35.106;2022-12-07T05:52:30;102031.47;;;-3.12;72.43
29461;BME280;16428;47.836;35.106;2022-12-07T05:54:59;102030.28;;;-3.05;73.11
29461;BME280;16428;47.836;35.106;2022-12-07T05:57:31;102027.41;;;-3.21;73.66
29461;BME280;16428;47.836;35.106;2022-12-07T06:00:00;102050.00;;;-3.17;73.38
29461;BME280;16428;47.836;35.106;2022-12-07T06:02:30;102055.38;;;-3.20;73.54
29461;BME280;16428;47.836;35.106;2022-12-07T06:04:59;102055.38;;;-3.20;73.61
29461;BME280;16428;47.836;35.106;2022-12-07T06:07:29;102054.31;;;-3.14;73.31
29461;BME280;16428;47.836;35.106;2022-12-07T06:09:57;102060.22;;;-3.08;72.93
29461;BME280;16428;47.836;35.106;2022-12-07T06:12:26;102061.94;;;-3.07;73.22
29461;BME280;16428;47.836;35.106;2022-12-07T06:15:04;102059.09;;;-3.02;72.23
29461;BME280;16428;47.836;35.106;2022-12-07T06:17:35;102060.69;;;-3.45;72.78
29461;BME280;16428;47.836;35.106;2022-12-07T06:20:03;102061.84;;;-3.29;73.99
29461;BME280;16428;47.836;35.106;2022-12-07T06:22:33;102058.94;;;-3.21;73.18
29461;BME280;16428;47.836;35.106;2022-12-07T06:25:02;102050.97;;;-3.43;73.30
29461;BME280;16428;47.836;35.106;2022-12-07T06:27:36;102056.75;;;-3.33;73.87
29461;BME280;16428;47.836;35.106;2022-12-07T06:30:05;102057.78;;;-3.37;73.51
29461;BME280;16428;47.836;35.106;2022-12-07T06:32:36;102051.28;;;-3.77;74.40
29461;BME280;16428;47.836;35.106;2022-12-07T06:35:05;102052.47;;;-3.61;75.39
29461;BME280;16428;47.836;35.106;2022-12-07T06:37:34;102048.34;;;-3.43;74.82
29461;BME280;16428;47.836;35.106;2022-12-07T06:40:03;102051.50;;;-3.33;75.02
29461;BME280;16428;47.836;35.106;2022-12-07T06:42:33;102051.16;;;-3.24;73.98
29461;BME280;16428;47.836;35.106;2022-12-07T06:45:02;102048.75;;;-3.30;73.38
29461;BME280;16428;47.836;35.106;2022-12-07T06:47:33;102039.16;;;-3.31;73.69
29461;BME280;16428;47.836;35.106;2022-12-07T06:50:11;102046.19;;;-3.32;74.44
29461;BME280;16428;47.836;35.106;2022-12-07T06:52:40;102025.41;;;-3.38;74.31
29461;BME280;16428;47.836;35.106;2022-12-07T06:55:09;102042.22;;;-3.43;74.04
29461;BME280;16428;47.836;35.106;2022-12-07T06:57:38;102040.59;;;-3.23;73.25
29461;BME280;16428;47.836;35.106;2022-12-07T07:00:07;102036.06;;;-3.19;73.47
29461;BME280;16428;47.836;35.106;2022-12-07T07:02:38;102038.84;;;-3.22;73.77
29461;BME280;16428;47.836;35.106;2022-12-07T07:05:09;102034.50;;;-3.23;73.21
29461;BME280;16428;47.836;35.106;2022-12-07T07:07:39;102036.13;;;-2.97;73.26
29461;BME280;16428;47.836;35.106;2022-12-07T07:10:27;102045.44;;;-2.89;72.28
29461;BME280;16428;47.836;35.106;2022-12-07T07:12:56;102043.75;;;-3.13;73.29
29461;BME280;16428;47.836;35.106;2022-12-07T07:15:30;102043.38;;;-3.04;72.69
29461;BME280;16428;47.836;35.106;2022-12-07T07:18:03;102046.00;;;-3.04;71.89
29461;BME280;16428;47.836;35.106;2022-12-07T07:20:35;102041.66;;;-3.05;72.21
29461;BME280;16428;47.836;35.106;2022-12-07T07:23:05;102042.34;;;-3.00;73.42
29461;BME280;16428;47.836;35.106;2022-12-07T07:25:34;102037.34;;;-3.06;73.44
29461;BME280;16428;47.836;35.106;2022-12-07T07:28:04;102025.22;;;-3.10;73.66
29461;BME280;16428;47.836;35.106;2022-12-07T19:52:59;101754.44;;;-1.36;100.00
29461;BME280;16428;47.836;35.106;2022-12-07T19:55:38;101756.00;;;-1.32;99.86
29461;BME280;16428;47.836;35.106;2022-12-07T19:58:09;101751.66;;;-1.16;99.80
29461;BME280;16428;47.836;35.106;2022-12-07T20:00:37;101745.31;;;-1.29;99.86
29461;BME280;16428;47.836;35.106;2022-12-07T20:03:06;101752.56;;;-1.34;100.00
29461;BME280;16428;47.836;35.106;2022-12-07T20:05:39;101746.00;;;-1.26;100.00
29461;BME280;16428;47.836;35.106;2022-12-07T20:08:10;101737.09;;;-1.40;100.00
29461;BME280;16428;47.836;35.106;2022-12-07T20:10:40;101734.97;;;-1.34;100.00
29461;BME280;16428;47.836;35.106;2022-12-07T20:13:10;101735.06;;;-1.35;100.00
29461;BME280;16428;47.836;35.106;2022-12-07T20:16:02;101751.78;;;-1.36;100.00
29461;BME280;16428;47.836;35.106;2022-12-07T20:18:53;101762.13;;;-1.15;100.00
29461;BME280;16428;47.836;35.106;2022-12-07T20:21:25;101764.41;;;-1.24;100.00
29461;BME280;16428;47.836;35.106;2022-12-07T20:24:00;101768.75;;;-1.23;100.00
29461;BME280;16428;47.836;35.106;2022-12-07T20:26:33;101766.25;;;-1.09;100.00
29461;BME280;16428;47.836;35.106;2022-12-07T20:29:07;101769.06;;;-1.12;100.00
29461;BME280;16428;47.836;35.106;2022-12-07T20:31:50;101764.22;;;-1.21;100.00
29461;BME280;16428;47.836;35.106;2022-12-07T20:34:23;101763.16;;;-1.17;100.00
29461;BME280;16428;47.836;35.106;2022-12-07T20:36:54;101765.34;;;-1.08;100.00
29461;BME280;16428;47.836;35.106;2022-12-07T20:39:26;101756.09;;;-1.17;100.00
29461;BME280;16428;47.836;35.106;2022-12-07T20:41:54;101752.66;;;-1.19;100.00
29461;BME280;16428;47.836;35.106;2022-12-07T20:44:42;101743.22;;;-1.06;100.00
29461;BME280;16428;47.836;35.106;2022-12-07T20:47:11;101741.75;;;-0.94;100.00
29461;BME280;16428;47.836;35.106;2022-12-07T20:49:40;101739.13;;;-0.94;100.00
29461;BME280;16428;47.836;35.106;2022-12-07T20:52:09;101727.38;;;-1.06;100.00
29461;BME280;16428;47.836;35.106;2022-12-07T20:54:38;101727.00;;;-0.81;100.00
29461;BME280;16428;47.836;35.106;2022-12-07T20:57:07;101731.03;;;-0.91;100.00
29461;BME280;16428;47.836;35.106;2022-12-07T20:59:36;101729.16;;;-0.89;100.00
29461;BME280;16428;47.836;35.106;2022-12-07T21:02:13;101725.38;;;-1.00;100.00
29461;BME280;16428;47.836;35.106;2022-12-07T21:04:42;101722.66;;;-0.99;100.00
29461;BME280;16428;47.836;35.106;2022-12-07T21:07:11;101716.47;;;-0.98;100.00
29461;BME280;16428;47.836;35.106;2022-12-07T21:09:53;101709.47;;;-0.99;100.00
29461;BME280;16428;47.836;35.106;2022-12-07T21:12:43;101720.97;;;-1.00;100.00
29461;BME280;16428;47.836;35.106;2022-12-07T21:15:12;101714.44;;;-0.93;100.00
29461;BME280;16428;47.836;35.106;2022-12-07T21:17:41;101714.75;;;-0.82;100.00
29461;BME280;16428;47.836;35.106;2022-12-07T21:20:11;101708.75;;;-0.85;100.00
29461;BME280;16428;47.836;35.106;2022-12-07T21:22:39;101719.63;;;-0.91;100.00
29461;BME280;16428;47.836;35.106;2022-12-07T21:25:12;101719.16;;;-0.82;100.00
29461;BME280;16428;47.836;35.106;2022-12-07T21:27:41;101722.50;;;-0.79;100.00
29461;BME280;16428;47.836;35.106;2022-12-07T21:30:20;101723.59;;;-0.83;100.00
29461;BME280;16428;47.836;35.106;2022-12-07T21:32:49;101727.84;;;-0.63;100.00
29461;BME280;16428;47.836;35.106;2022-12-07T21:35:19;101728.00;;;-0.83;100.00
29461;BME280;16428;47.836;35.106;2022-12-07T21:37:57;101721.22;;;-0.72;100.00
29461;BME280;16428;47.836;35.106;2022-12-07T21:40:30;101734.50;;;-0.73;100.00
29461;BME280;16428;47.836;35.106;2022-12-07T21:42:58;101730.22;;;-0.58;100.00
29461;BME280;16428;47.836;35.106;2022-12-07T21:45:31;101732.50;;;-0.68;100.00
29461;BME280;16428;47.836;35.106;2022-12-07T21:48:00;101736.75;;;-0.65;100.00
29461;BME280;16428;47.836;35.106;2022-12-07T21:50:30;101733.03;;;-0.61;100.00
29461;BME280;16428;47.836;35.106;2022-12-07T21:52:58;101748.38;;;-0.52;100.00
29461;BME280;16428;47.836;35.106;2022-12-07T21:55:28;101743.09;;;-0.52;100.00
29461;BME280;16428;47.836;35.106;2022-12-07T21:57:56;101742.28;;;-0.37;100.00
29461;BME280;16428;47.836;35.106;2022-12-07T22:00:25;101740.25;;;-0.32;100.00
29461;BME280;16428;47.836;35.106;2022-12-07T22:02:56;101731.66;;;-0.20;100.00
29461;BME280;16428;47.836;35.106;2022-12-07T22:05:25;101731.47;;;-0.32;100.00
29461;BME280;16428;47.836;35.106;2022-12-07T22:07:54;101719.44;;;-0.38;100.00
29461;BME280;16428;47.836;35.106;2022-12-07T22:10:24;101720.47;;;-0.41;100.00
29461;BME280;16428;47.836;35.106;2022-12-07T22:13:00;101718.88;;;-0.27;100.00
29461;BME280;16428;47.836;35.106;2022-12-07T22:15:29;101714.88;;;-0.34;100.00
29461;BME280;16428;47.836;35.106;2022-12-07T22:17:59;101712.72;;;-0.28;100.00
29461;BME280;16428;47.836;35.106;2022-12-07T22:20:28;101703.28;;;-0.32;100.00
29461;BME280;16428;47.836;35.106;2022-12-07T22:22:58;101714.72;;;-0.31;100.00
29461;BME280;16428;47.836;35.106;2022-12-07T22:25:27;101701.38;;;-0.46;100.00
29461;BME280;16428;47.836;35.106;2022-12-07T22:27:56;101710.09;;;-0.61;100.00
29461;BME280;16428;47.836;35.106;2022-12-07T22:30:29;101710.44;;;-0.34;100.00
29461;BME280;16428;47.836;35.106;2022-12-07T22:32:58;101703.09;;;-0.29;100.00
29461;BME280;16428;47.836;35.106;2022-12-07T22:35:27;101709.31;;;-0.30;100.00
29461;BME280;16428;47.836;35.106;2022-12-07T22:37:57;101698.19;;;-0.19;100.00
29461;BME280;16428;47.836;35.106;2022-12-07T22:40:26;101694.84;;;-0.23;100.00
29461;BME280;16428;47.836;35.106;2022-12-07T22:42:57;101688.97;;;-0.28;100.00
29461;BME280;16428;47.836;35.106;2022-12-07T22:45:26;101693.00;;;-0.21;100.00
29461;BME280;16428;47.836;35.106;2022-12-07T22:47:56;101695.63;;;-0.05;100.00
29461;BME280;16428;47.836;35.106;2022-12-07T22:50:25;101694.78;;;-0.21;100.00
29461;BME280;16428;47.836;35.106;2022-12-07T22:52:53;101693.16;;;-0.08;100.00
29461;BME280;16428;47.836;35.106;2022-12-07T22:55:25;101692.22;;;-0.07;100.00
29461;BME280;16428;47.836;35.106;2022-12-07T22:57:53;101710.63;;;-0.06;100.00
29461;BME280;16428;47.836;35.106;2022-12-07T23:00:23;101711.50;;;-0.05;100.00
29461;BME280;16428;47.836;35.106;2022-12-07T23:02:53;101709.53;;;-0.02;100.00
29461;BME280;16428;47.836;35.106;2022-12-07T23:05:24;101710.19;;;0.02;100.00
29461;BME280;16428;47.836;35.106;2022-12-07T23:07:56;101712.19;;;-0.02;100.00
29461;BME280;16428;47.836;35.106;2022-12-07T23:10:26;101711.50;;;-0.05;100.00
29461;BME280;16428;47.836;35.106;2022-12-07T23:12:54;101709.44;;;-0.16;100.00
29461;BME280;16428;47.836;35.106;2022-12-07T23:15:42;101697.19;;;-0.17;100.00
29461;BME280;16428;47.836;35.106;2022-12-07T23:18:11;101700.22;;;-0.09;100.00
29461;BME280;16428;47.836;35.106;2022-12-07T23:20:41;101705.50;;;-0.09;100.00
29461;BME280;16428;47.836;35.106;2022-12-07T23:23:09;101724.25;;;0.03;100.00
29461;BME280;16428;47.836;35.106;2022-12-07T23:25:39;101724.63;;;-0.04;100.00
29461;BME280;16428;47.836;35.106;2022-12-07T23:28:11;101731.69;;;-0.04;100.00
29461;BME280;16428;47.836;35.106;2022-12-07T23:30:41;101738.75;;;-0.05;100.00
29461;BME280;16428;47.836;35.106;2022-12-07T23:33:10;101740.88;;;0.05;100.00
29461;BME280;16428;47.836;35.106;2022-12-07T23:35:40;101736.91;;;0.13;100.00
29461;BME280;16428;47.836;35.106;2022-12-07T23:38:11;101743.09;;;-0.04;100.00
29461;BME280;16428;47.836;35.106;2022-12-07T23:40:42;101738.59;;;-0.02;100.00
29461;BME280;16428;47.836;35.106;2022-12-07T23:43:11;101738.75;;;0.11;100.00
29461;BME280;16428;47.836;35.106;2022-12-07T23:45:44;101748.97;;;0.17;100.00
29461;BME280;16428;47.836;35.106;2022-12-07T23:48:12;101747.63;;;0.10;100.00
29461;BME280;16428;47.836;35.106;2022-12-07T23:50:41;101746.41;;;0.16;100.00
29461;BME280;16428;47.836;35.106;2022-12-07T23:53:10;101741.41;;;0.27;100.00
29461;BME280;16428;47.836;35.106;2022-12-07T23:55:44;101743.28;;;0.25;100.00
29461;BME280;16428;47.836;35.106;2022-12-07T23:58:13;101737.56;;;0.17;100.00
